Accueil
METAR-TAF:

METAR-TAF

Aéroports :

Hong Kong, Chine

Aéroport international de Hong Kong

latitude: 22-19N, longitude: 113-55E, altitude: 9 m

Observation

Le bulletin a été fait il y a 5 minutes, à 09:30 UTC
Vent 10 kt de est/sud-est, variant entre est et sud/sud-est
Température 30°C
Humidité 55%
Pression 1008 hPa
Visibilité 10 km ou plus
Quelques nuages à une hauteur de 4000 ft

METAR: VHHH 290930Z 11010KT 080V160 9999 FEW040 30/20 Q1008 NOSIG

Heure: 17:35 (09:35 UTC)

Prévision

Le bulletin a été fait il y a 4 heures et 35 minutes, à 05:00 UTC
Prévision valable du 29 à 06 UTC au 30 à 12 UTC
Vent 10 kt de ouest
Visibilité 10 km ou plus
Quelques nuages à une hauteur de 3500 ft
Evoluant progressivement
du 29 à 09 UTC au 29 à 11 UTC
Vent 10 kt de est

TAF: VHHH 290500Z 2906/3012 27010KT 9999 FEW035 TX31/2907Z TX30/3006Z TN26/2923Z BECMG 2909/2911 10010KT

Observations et prévisions météorologiques de plus de 4000 aéroports (messages METAR et TAF).

Les stations disponibles sont représentées par des disques jaunes et rouges sur la carte.

Passer la souris dessus pour voir le nom de la station.

Cliquer dessus pour voir les observations et prévisions météorologiques.

Pour changer de carte: cliquez sur les boutons verts avec une croix noire pour zoomer, sur le bouton vert avec un tiret pour effectuer un zoom arrière, ou sur les flèches vertes pour les cartes adjacentes.


METAR-TAF: